หน้าหลัก
METAR-TAF:

METAR-TAF

ท่าอากาศยาน :

วูช, โปแลนด์

ละติจูด: 51-43-19N, ลองจิจูด: 019-23-53E, ความสูง: 184 ม.

การสังเกตสภาพอากาศปัจจุบัน

รายงานได้ทำขึ้นเมื่อ 23 นาทีที่แล้ว ณ เวลา 02:00 UTC
ลม 2 นอตจากตะวันตกเฉียงใต้
อุณหภูมิ 13°C
ความชื้น 100%
ความกดอากาศ 1022 hPa
ทัศนวิสัย 10 กม. หรือมากกว่า
หมอกตื้น,

METAR: EPLL 190200Z 23002KT 9999 MIFG NSC 13/13 Q1022

เวลา: 04:23 (02:23 UTC)

การพยากรณ์

รายงานได้ทำขึ้นเมื่อ 2 ชั่วโมงและ 53 นาทีที่แล้ว ณ เวลา 23:30 UTC
การพยากรณ์มีผลตั้งแต่วันที่ 19 ณ เวลา 00 UTC จนถึงวันที่ 19 ณ เวลา 24 UTC
ลม 3 นอตจากทิศทางซึ่งแปรผันได้
ทัศนวิสัย 10 กม. หรือมากกว่า
ไม่มีเมฆต่ำกว่า 1,500 ม. และไม่มีเมฆคิวมูโลนิมบัส
ความน่าจะเป็น 40%
ตั้งแต่วันที่ 19 ณ เวลา 00 UTC จนถึงวันที่ 19 ณ เวลา 03 UTC
ทัศนวิสัย: 3000 ม.
หมอกน้ำค้าง,

TAF: EPLL 182330Z 1900/1924 VRB03KT CAVOK PROB40 1900/1903 3000 BR

สังเกตการณ์สภาพอากาศและพยากรณ์อากาศของสนามบินมากกว่า 4000 แห่ง (รายงาน METAR และ TAF).

สถานีที่ดูได้จะแสดงไว้ด้วยจุดสีเหลืองและสีแดงบนแผนที่.

เลื่อนเมาส์ไปเหนือจุดเพื่อดูชื่อสถานี.

แล้วคลิกเพื่อดูสังเกตการณ์และการพยากรณ์สภาพอากาศ.

ในการเปลี่ยนแผนที่: คลิกที่ปุ่มสีเขียวที่มีกากบาทสีดำเพื่อซูมเข้า; ที่ปุ่มสีเขียวที่มีขีดเพื่อซูมออก; หรือที่ลูกศรสีเขียวเพื่อไปยังแผนที่ที่อยู่ติดกัน.


METAR-TAF: